Time;durP1;ratioP1;P1;durP2;ratioP2;P2;SDS_P1;SDS_P2;PMS_P1;PMS_P2;Temp;Humidity;BMP_temperature;BMP_pressure;BME280_temperature;BME280_humidity;BME280_pressure;Samples;Min_cycle;Max_cycle;Signal;HPM_P1;HPM_P2
2023/12/26 00:01:10;;;;;;;6.83;2.57;;;;;;;;;;5040147;28;20468;-77
2023/12/26 00:03:36;;;;;;;4.70;2.37;;;;;;;;;;5040693;28;20888;-77
2023/12/26 00:06:02;;;;;;;4.20;2.00;;;;;;;;;;5039775;28;20469;-77
2023/12/26 00:08:31;;;;;;;7.13;2.13;;;;;;;;;;5040832;28;20475;-77
2023/12/26 00:10:58;;;;;;;2.70;2.30;;;;;;;;;;5040440;28;20472;-77
2023/12/26 00:13:24;;;;;;;2.10;1.83;;;;;;;;;;5040928;28;20441;-77
2023/12/26 00:15:51;;;;;;;5.00;2.40;;;;;;;;;;5040557;28;20523;-77
2023/12/26 00:18:17;;;;;;;4.20;1.80;;;;;;;;;;5040193;28;20471;-77
2023/12/26 00:20:44;;;;;;;5.10;2.20;;;;;;;;;;5039958;28;20476;-77
2023/12/26 00:23:11;;;;;;;5.13;1.73;;;;;;;;;;5040721;28;20988;-77
2023/12/26 00:25:38;;;;;;;5.53;2.00;;;;;;;;;;5040892;28;20476;-77
2023/12/26 00:28:05;;;;;;;2.60;2.20;;;;;;;;;;5040411;28;20437;-77
2023/12/26 00:30:32;;;;;;;6.60;2.40;;;;;;;;;;5040120;28;20472;-77
2023/12/26 00:32:58;;;;;;;5.70;2.80;;;;;;;;;;5040950;28;21001;-77
2023/12/26 00:35:25;;;;;;;5.37;3.10;;;;;;;;;;5040368;28;20472;-77
2023/12/26 00:37:51;;;;;;;3.40;2.80;;;;;;;;;;5039961;28;20822;-77
2023/12/26 00:40:18;;;;;;;8.43;3.70;;;;;;;;;;5040938;28;20473;-77
2023/12/26 00:42:45;;;;;;;5.37;2.40;;;;;;;;;;5041158;28;20445;-77
2023/12/26 00:45:13;;;;;;;4.57;3.20;;;;;;;;;;5040490;28;20460;-77
2023/12/26 00:47:39;;;;;;;6.53;3.53;;;;;;;;;;5041080;28;20514;-77
2023/12/26 00:50:11;;;;;;;8.07;3.20;;;;;;;;;;5041629;28;20445;-77
2023/12/26 00:52:38;;;;;;;7.10;2.90;;;;;;;;;;5041971;28;20428;-77
2023/12/26 00:55:05;;;;;;;3.20;2.27;;;;;;;;;;5040978;28;20670;-77
2023/12/26 00:57:33;;;;;;;9.73;2.40;;;;;;;;;;5041202;28;20441;-77
2023/12/26 01:00:00;;;;;;;2.40;1.90;;;;;;;;;;5040520;28;20449;-77
2023/12/26 01:02:27;;;;;;;2.87;1.83;;;;;;;;;;5041523;28;20441;-77
2023/12/26 01:04:53;;;;;;;1.73;1.57;;;;;;;;;;5040664;28;20461;-77
2023/12/26 01:07:20;;;;;;;1.60;1.50;;;;;;;;;;5041381;28;20440;-77
2023/12/26 01:09:46;;;;;;;2.83;1.70;;;;;;;;;;5040626;28;20444;-77
2023/12/26 01:12:13;;;;;;;2.53;1.63;;;;;;;;;;5039948;28;20482;-77
2023/12/26 01:14:41;;;;;;;1.77;1.17;;;;;;;;;;5040327;28;20544;-77
2023/12/26 01:17:09;;;;;;;1.00;0.93;;;;;;;;;;5039306;28;21078;-77
2023/12/26 01:19:35;;;;;;;2.40;0.90;;;;;;;;;;5040034;28;20495;-77
2023/12/26 01:22:02;;;;;;;1.20;1.00;;;;;;;;;;5039088;28;20475;-77
2023/12/26 01:24:28;;;;;;;0.80;0.80;;;;;;;;;;5039820;28;20518;-77
2023/12/26 01:26:55;;;;;;;1.03;0.97;;;;;;;;;;5040111;28;20849;-77
2023/12/26 01:29:21;;;;;;;1.23;1.07;;;;;;;;;;5039450;28;20445;-77
2023/12/26 01:31:48;;;;;;;1.87;1.30;;;;;;;;;;5039008;28;20499;-77
2023/12/26 01:34:15;;;;;;;4.20;1.73;;;;;;;;;;5040059;28;20830;-77
2023/12/26 01:36:42;;;;;;;2.43;1.47;;;;;;;;;;5039191;28;20503;-77
2023/12/26 01:39:10;;;;;;;5.40;2.07;;;;;;;;;;5039680;28;20441;-77
2023/12/26 01:41:36;;;;;;;1.17;1.07;;;;;;;;;;5038833;28;20845;-77
2023/12/26 01:44:03;;;;;;;3.27;2.70;;;;;;;;;;5039588;28;20472;-77
2023/12/26 01:46:29;;;;;;;3.70;1.93;;;;;;;;;;5039226;28;20465;-77
2023/12/26 01:48:56;;;;;;;1.60;1.50;;;;;;;;;;5039084;28;20502;-77
2023/12/26 01:51:26;;;;;;;1.73;1.03;;;;;;;;;;5039281;28;20473;-77
2023/12/26 01:53:53;;;;;;;1.63;1.07;;;;;;;;;;5039226;28;20421;-77
2023/12/26 01:56:19;;;;;;;1.40;1.30;;;;;;;;;;5038385;28;20508;-77
2023/12/26 01:58:48;;;;;;;2.40;0.80;;;;;;;;;;5039045;28;20449;-77
2023/12/26 02:01:15;;;;;;;2.10;0.97;;;;;;;;;;5039036;28;20469;-77
2023/12/26 02:03:42;;;;;;;1.50;0.80;;;;;;;;;;5040056;28;20510;-77
2023/12/26 02:06:09;;;;;;;0.80;0.80;;;;;;;;;;5039295;28;20465;-77
2023/12/26 02:08:37;;;;;;;0.80;0.80;;;;;;;;;;5040784;28;20535;-77
2023/12/26 02:11:04;;;;;;;1.47;1.07;;;;;;;;;;5039318;28;20480;-77
2023/12/26 02:13:30;;;;;;;1.00;0.63;;;;;;;;;;5039797;28;20877;-77
2023/12/26 02:15:58;;;;;;;0.70;0.50;;;;;;;;;;5039075;28;20878;-77
2023/12/26 02:18:25;;;;;;;1.53;1.07;;;;;;;;;;5040089;28;20451;-77
2023/12/26 02:20:52;;;;;;;1.23;0.70;;;;;;;;;;5040174;28;20530;-77
2023/12/26 02:23:18;;;;;;;4.30;0.77;;;;;;;;;;5040617;28;20499;-77
2023/12/26 02:25:46;;;;;;;1.03;0.60;;;;;;;;;;5039412;28;20484;-77
2023/12/26 02:28:13;;;;;;;0.73;0.73;;;;;;;;;;5039245;28;20444;-77
2023/12/26 02:30:40;;;;;;;1.77;0.70;;;;;;;;;;5038813;28;20468;-77
2023/12/26 02:33:07;;;;;;;1.63;0.93;;;;;;;;;;5039117;28;20449;-77
2023/12/26 02:35:33;;;;;;;1.40;0.90;;;;;;;;;;5038387;28;20476;-77
2023/12/26 02:38:01;;;;;;;1.27;1.00;;;;;;;;;;5038467;28;20443;-77
2023/12/26 02:40:28;;;;;;;1.03;0.87;;;;;;;;;;5038724;28;20509;-77
2023/12/26 02:42:56;;;;;;;0.80;0.73;;;;;;;;;;5038921;28;20846;-77
2023/12/26 02:45:22;;;;;;;1.33;1.00;;;;;;;;;;5038442;28;20888;-77
2023/12/26 02:47:49;;;;;;;4.53;1.27;;;;;;;;;;5039214;28;20510;-77
2023/12/26 02:50:15;;;;;;;3.50;1.17;;;;;;;;;;5037707;28;20468;-77
2023/12/26 02:52:43;;;;;;;0.70;0.70;;;;;;;;;;5038954;28;20467;-77
2023/12/26 02:55:09;;;;;;;1.80;1.10;;;;;;;;;;5037757;28;23132;-77
2023/12/26 02:57:35;;;;;;;1.50;0.97;;;;;;;;;;5038482;28;20440;-77
2023/12/26 03:00:05;;;;;;;1.13;1.03;;;;;;;;;;5037246;28;20421;-77
2023/12/26 03:02:32;;;;;;;0.70;0.70;;;;;;;;;;5037848;28;20450;-77
2023/12/26 03:04:59;;;;;;;1.20;0.70;;;;;;;;;;5037389;28;20465;-77
2023/12/26 03:07:25;;;;;;;0.90;0.80;;;;;;;;;;5038153;28;20947;-77
2023/12/26 03:09:52;;;;;;;3.37;0.90;;;;;;;;;;5036909;28;20445;-77
2023/12/26 03:12:19;;;;;;;1.23;0.90;;;;;;;;;;5037514;28;20958;-77
2023/12/26 03:14:45;;;;;;;1.53;1.10;;;;;;;;;;5037908;28;20472;-77
2023/12/26 03:17:13;;;;;;;0.77;0.77;;;;;;;;;;5037810;28;20477;-77
2023/12/26 03:19:39;;;;;;;2.50;0.90;;;;;;;;;;5037504;28;20436;-77
2023/12/26 03:22:06;;;;;;;1.20;1.10;;;;;;;;;;5036432;28;20472;-77
2023/12/26 03:24:33;;;;;;;4.23;0.87;;;;;;;;;;5037569;28;20464;-77
2023/12/26 03:27:01;;;;;;;1.20;1.00;;;;;;;;;;5036905;28;20460;-77
2023/12/26 03:29:27;;;;;;;1.37;1.27;;;;;;;;;;5036599;28;20868;-77
2023/12/26 03:31:53;;;;;;;2.00;0.87;;;;;;;;;;5036702;28;20469;-77
2023/12/26 03:34:21;;;;;;;1.87;0.97;;;;;;;;;;5037395;28;20456;-77
2023/12/26 03:36:48;;;;;;;1.07;0.97;;;;;;;;;;5036810;28;20473;-77
2023/12/26 03:39:15;;;;;;;3.63;1.47;;;;;;;;;;5037066;28;20437;-76
2023/12/26 03:41:44;;;;;;;7.73;1.50;;;;;;;;;;5037273;28;20473;-77
2023/12/26 03:44:10;;;;;;;2.20;1.30;;;;;;;;;;5037480;28;20475;-77
2023/12/26 03:46:36;;;;;;;1.60;1.50;;;;;;;;;;5036772;28;20468;-76
2023/12/26 03:49:03;;;;;;;3.60;1.03;;;;;;;;;;5037281;28;20437;-77
2023/12/26 03:51:31;;;;;;;3.73;1.70;;;;;;;;;;5036082;28;20473;-77
2023/12/26 03:53:57;;;;;;;4.00;2.00;;;;;;;;;;5037441;28;20441;-76
2023/12/26 03:56:24;;;;;;;2.30;1.13;;;;;;;;;;5036946;28;20476;-77
2023/12/26 03:58:50;;;;;;;6.33;1.70;;;;;;;;;;5036919;28;20449;-77
2023/12/26 04:01:16;;;;;;;2.50;1.17;;;;;;;;;;5035865;28;20503;-77
2023/12/26 04:03:43;;;;;;;4.73;1.30;;;;;;;;;;5036637;28;20441;-77
2023/12/26 04:06:10;;;;;;;1.80;1.10;;;;;;;;;;5036310;28;20465;-77
2023/12/26 04:08:37;;;;;;;2.70;1.57;;;;;;;;;;5036338;28;20445;-77
2023/12/26 04:11:04;;;;;;;9.53;1.90;;;;;;;;;;5036389;28;20472;-76
2023/12/26 04:13:31;;;;;;;3.57;1.80;;;;;;;;;;5039518;28;20440;-77
2023/12/26 04:15:57;;;;;;;3.50;1.30;;;;;;;;;;5039478;28;20539;-77
2023/12/26 04:18:24;;;;;;;5.00;2.10;;;;;;;;;;5039765;28;20432;-76
2023/12/26 04:20:50;;;;;;;4.83;2.00;;;;;;;;;;5040415;28;20526;-76
2023/12/26 04:23:15;;;;;;;3.07;1.50;;;;;;;;;;5040623;28;20432;-77
2023/12/26 04:25:43;;;;;;;6.50;2.03;;;;;;;;;;5040097;28;20530;-76
2023/12/26 04:28:10;;;;;;;6.63;2.27;;;;;;;;;;5040237;28;20209;-76
2023/12/26 04:30:36;;;;;;;5.93;1.90;;;;;;;;;;5039154;28;20508;-77
2023/12/26 04:33:05;;;;;;;7.63;2.13;;;;;;;;;;5039433;28;20813;-76
2023/12/26 04:35:31;;;;;;;6.67;2.27;;;;;;;;;;5039213;28;20473;-77
2023/12/26 04:37:58;;;;;;;15.00;2.87;;;;;;;;;;5039993;28;20490;-76
2023/12/26 04:40:24;;;;;;;4.67;2.40;;;;;;;;;;5040144;28;20530;-76
2023/12/26 04:42:52;;;;;;;6.63;2.80;;;;;;;;;;5040192;28;20866;-76
2023/12/26 04:45:19;;;;;;;15.60;3.80;;;;;;;;;;5038607;28;20473;-77
2023/12/26 04:47:45;;;;;;;6.97;2.80;;;;;;;;;;5040179;28;20519;-76
2023/12/26 04:50:11;;;;;;;6.97;3.40;;;;;;;;;;5038502;28;20951;-77
2023/12/26 04:52:38;;;;;;;15.60;3.20;;;;;;;;;;5039678;28;20441;-77
2023/12/26 04:55:05;;;;;;;7.07;2.73;;;;;;;;;;5037807;28;20551;-76
2023/12/26 04:57:31;;;;;;;9.20;2.40;;;;;;;;;;5038949;28;20571;-76
2023/12/26 04:59:59;;;;;;;4.10;2.17;;;;;;;;;;5039228;28;20938;-77
2023/12/26 05:02:26;;;;;;;8.80;3.23;;;;;;;;;;5039552;28;20436;-76
2023/12/26 05:04:52;;;;;;;12.27;2.30;;;;;;;;;;5038482;28;20547;-77
2023/12/26 05:07:18;;;;;;;12.07;2.50;;;;;;;;;;5039762;28;20436;-76
2023/12/26 05:09:45;;;;;;;9.57;2.20;;;;;;;;;;5039375;28;20441;-76
2023/12/26 05:12:11;;;;;;;9.43;2.90;;;;;;;;;;5039518;28;20495;-77
2023/12/26 05:14:39;;;;;;;11.00;2.57;;;;;;;;;;5039209;28;20487;-77
2023/12/26 05:17:07;;;;;;;13.63;3.77;;;;;;;;;;5039485;28;20523;-76
2023/12/26 05:19:33;;;;;;;8.17;2.20;;;;;;;;;;5040287;28;20445;-76
2023/12/26 05:21:59;;;;;;;8.27;2.70;;;;;;;;;;5039016;28;20484;-77
2023/12/26 05:24:26;;;;;;;8.33;2.30;;;;;;;;;;5037939;28;20483;-76
2023/12/26 05:26:52;;;;;;;7.13;1.97;;;;;;;;;;5038432;28;20476;-76
2023/12/26 05:29:19;;;;;;;5.60;2.13;;;;;;;;;;5039608;28;20544;-76
2023/12/26 05:31:45;;;;;;;14.07;3.03;;;;;;;;;;5038426;28;20591;-77
2023/12/26 05:34:13;;;;;;;9.90;2.40;;;;;;;;;;5038515;28;20463;-76
2023/12/26 05:36:39;;;;;;;5.07;1.80;;;;;;;;;;5037547;28;20539;-76
2023/12/26 05:39:07;;;;;;;8.77;2.40;;;;;;;;;;5038264;28;20441;-77
2023/12/26 05:41:34;;;;;;;4.93;2.67;;;;;;;;;;5038678;28;20469;-76
2023/12/26 05:44:00;;;;;;;11.80;3.20;;;;;;;;;;5037816;28;20433;-76
2023/12/26 05:46:28;;;;;;;11.23;2.67;;;;;;;;;;5037852;28;20469;-77
2023/12/26 05:48:55;;;;;;;14.03;3.03;;;;;;;;;;5038743;28;20448;-77
2023/12/26 05:51:23;;;;;;;9.97;2.13;;;;;;;;;;5037788;28;20541;-76
2023/12/26 05:53:49;;;;;;;7.77;2.40;;;;;;;;;;5038470;28;20440;-76
2023/12/26 05:56:16;;;;;;;10.13;2.67;;;;;;;;;;5038957;28;20480;-76
2023/12/26 05:58:42;;;;;;;5.37;2.50;;;;;;;;;;5038485;28;20494;-77
2023/12/26 06:01:12;;;;;;;10.30;2.60;;;;;;;;;;5037660;28;21072;-77
2023/12/26 06:03:38;;;;;;;8.00;2.60;;;;;;;;;;5037511;28;20909;-76
2023/12/26 06:06:05;;;;;;;9.03;2.90;;;;;;;;;;5037134;28;20491;-78
2023/12/26 06:08:33;;;;;;;14.27;2.90;;;;;;;;;;5037608;28;20468;-78
2023/12/26 06:10:59;;;;;;;13.40;4.47;;;;;;;;;;5036736;28;20464;-78
2023/12/26 06:13:26;;;;;;;11.27;3.40;;;;;;;;;;5037387;28;20978;-78
2023/12/26 06:15:52;;;;;;;15.30;3.60;;;;;;;;;;5036651;28;20527;-78
2023/12/26 06:18:19;;;;;;;11.90;3.30;;;;;;;;;;5037588;28;20437;-78
2023/12/26 06:20:45;;;;;;;11.17;3.60;;;;;;;;;;5037889;28;20526;-77
2023/12/26 06:23:12;;;;;;;13.13;3.03;;;;;;;;;;5037910;28;20491;-78
2023/12/26 06:25:40;;;;;;;15.27;3.30;;;;;;;;;;5036547;28;20514;-78
2023/12/26 06:28:06;;;;;;;14.10;3.40;;;;;;;;;;5037290;28;20931;-78
2023/12/26 06:30:33;;;;;;;12.63;3.53;;;;;;;;;;5038012;28;20468;-78
2023/12/26 06:32:59;;;;;;;10.57;3.57;;;;;;;;;;5038018;28;20503;-76
2023/12/26 06:35:25;;;;;;;10.00;2.70;;;;;;;;;;5035841;28;20526;-78
2023/12/26 06:37:52;;;;;;;11.70;3.20;;;;;;;;;;5037939;28;20484;-78
2023/12/26 06:40:18;;;;;;;10.23;2.37;;;;;;;;;;5036821;28;20460;-78
2023/12/26 06:42:46;;;;;;;16.13;3.70;;;;;;;;;;5037011;28;20444;-78
2023/12/26 06:45:12;;;;;;;14.60;3.20;;;;;;;;;;5036826;28;20472;-78
2023/12/26 06:47:40;;;;;;;10.47;3.17;;;;;;;;;;5037725;28;20448;-78
2023/12/26 06:50:06;;;;;;;18.60;4.13;;;;;;;;;;5036871;28;20463;-78
2023/12/26 06:52:33;;;;;;;15.33;3.30;;;;;;;;;;5037093;28;20448;-78
2023/12/26 06:54:59;;;;;;;16.00;3.30;;;;;;;;;;5036959;28;20467;-78
2023/12/26 06:57:26;;;;;;;12.17;2.50;;;;;;;;;;5036825;28;20551;-78
2023/12/26 06:59:54;;;;;;;14.30;3.40;;;;;;;;;;5036727;28;20456;-79
2023/12/26 07:02:20;;;;;;;11.37;4.07;;;;;;;;;;5037635;28;20447;-78
2023/12/26 07:04:47;;;;;;;12.07;3.43;;;;;;;;;;5037172;28;20547;-78
2023/12/26 07:07:13;;;;;;;13.00;2.97;;;;;;;;;;5037372;28;20527;-78
2023/12/26 07:09:40;;;;;;;14.30;3.53;;;;;;;;;;5037399;28;20926;-78
2023/12/26 07:12:07;;;;;;;12.90;3.30;;;;;;;;;;5036803;28;20469;-78
2023/12/26 07:14:33;;;;;;;16.83;3.07;;;;;;;;;;5036714;28;20471;-77
2023/12/26 07:17:01;;;;;;;12.37;2.87;;;;;;;;;;5037041;28;20473;-77
2023/12/26 07:19:28;;;;;;;11.83;4.63;;;;;;;;;;5037476;28;20441;-77
2023/12/26 07:21:54;;;;;;;17.37;3.53;;;;;;;;;;5036733;28;20508;-78
2023/12/26 07:24:21;;;;;;;17.57;2.97;;;;;;;;;;5037777;28;20469;-78
2023/12/26 07:26:47;;;;;;;11.83;3.10;;;;;;;;;;5037217;28;20496;-78
2023/12/26 07:29:14;;;;;;;14.53;3.00;;;;;;;;;;5037704;28;20444;-77
2023/12/26 07:31:40;;;;;;;12.77;2.87;;;;;;;;;;5037007;28;20480;-78
2023/12/26 07:34:09;;;;;;;8.60;2.60;;;;;;;;;;5037881;28;20457;-78
2023/12/26 07:36:36;;;;;;;10.97;2.97;;;;;;;;;;5036429;28;20883;-78
2023/12/26 07:39:02;;;;;;;8.87;2.90;;;;;;;;;;5036877;28;20448;-78
2023/12/26 07:41:29;;;;;;;5.93;2.13;;;;;;;;;;5036442;28;20476;-78
2023/12/26 07:43:56;;;;;;;12.77;2.67;;;;;;;;;;5036528;28;20441;-77
2023/12/26 07:46:22;;;;;;;13.70;3.07;;;;;;;;;;5038399;28;20477;-78
2023/12/26 07:48:49;;;;;;;4.40;2.37;;;;;;;;;;5041000;28;20444;-78
2023/12/26 07:51:16;;;;;;;11.10;2.63;;;;;;;;;;5041265;28;20526;-78
2023/12/26 07:53:46;;;;;;;12.13;3.20;;;;;;;;;;5041866;28;20436;-78
2023/12/26 07:56:12;;;;;;;28.83;3.00;;;;;;;;;;5040963;28;20472;-78
2023/12/26 07:58:39;;;;;;;9.00;2.53;;;;;;;;;;5041075;28;20479;-78
2023/12/26 08:01:05;;;;;;;10.20;2.70;;;;;;;;;;5040581;28;20591;-78
2023/12/26 08:03:32;;;;;;;14.53;3.80;;;;;;;;;;5041294;28;20444;-78
2023/12/26 08:05:59;;;;;;;12.13;2.87;;;;;;;;;;5040134;28;20527;-78
2023/12/26 08:08:27;;;;;;;13.17;2.83;;;;;;;;;;5041031;28;20871;-78
2023/12/26 08:10:54;;;;;;;6.77;2.13;;;;;;;;;;5040185;28;20468;-77
2023/12/26 08:13:20;;;;;;;13.03;2.60;;;;;;;;;;5039733;28;20820;-78
2023/12/26 08:15:47;;;;;;;10.57;2.77;;;;;;;;;;5039936;28;20506;-76
2023/12/26 08:18:13;;;;;;;10.27;3.33;;;;;;;;;;5040642;28;20476;-78
2023/12/26 08:20:39;;;;;;;7.50;1.70;;;;;;;;;;5040588;28;20524;-77
2023/12/26 08:23:07;;;;;;;12.87;2.60;;;;;;;;;;5036921;28;20526;-75
2023/12/26 08:25:37;;;;;;;7.00;2.00;;;;;;;;;;5035572;28;21037;-76
2023/12/26 08:28:03;;;;;;;9.80;2.93;;;;;;;;;;5039262;28;20452;-77
2023/12/26 08:30:30;;;;;;;11.40;2.60;;;;;;;;;;5037757;28;20557;-77
2023/12/26 08:32:56;;;;;;;12.33;3.50;;;;;;;;;;5038942;28;20445;-76
2023/12/26 08:35:23;;;;;;;7.37;2.83;;;;;;;;;;5038257;28;20522;-76
2023/12/26 08:37:49;;;;;;;13.43;3.03;;;;;;;;;;5038756;28;20479;-76
2023/12/26 08:40:18;;;;;;;9.70;3.40;;;;;;;;;;5038837;28;20805;-76
2023/12/26 08:42:46;;;;;;;9.80;2.90;;;;;;;;;;5038475;28;20447;-77
2023/12/26 08:45:12;;;;;;;15.10;2.93;;;;;;;;;;5037226;28;20973;-76
2023/12/26 08:47:38;;;;;;;11.17;3.80;;;;;;;;;;5038886;28;20548;-77
2023/12/26 08:50:06;;;;;;;10.53;2.40;;;;;;;;;;5038307;28;20463;-77
2023/12/26 08:52:33;;;;;;;10.27;2.50;;;;;;;;;;5039327;28;20536;-78
2023/12/26 08:54:59;;;;;;;11.63;2.40;;;;;;;;;;5037980;28;20883;-79
2023/12/26 08:57:25;;;;;;;12.23;2.73;;;;;;;;;;5037147;28;21006;-78
2023/12/26 08:59:53;;;;;;;7.13;2.73;;;;;;;;;;5037544;28;20484;-78
2023/12/26 09:02:20;;;;;;;9.50;3.03;;;;;;;;;;5038648;28;20491;-78
2023/12/26 09:04:47;;;;;;;6.93;2.80;;;;;;;;;;5038776;28;20460;-78
2023/12/26 09:07:14;;;;;;;14.87;2.60;;;;;;;;;;5038339;28;20522;-78
2023/12/26 09:09:40;;;;;;;6.40;2.50;;;;;;;;;;5038538;28;20524;-78
2023/12/26 09:12:07;;;;;;;7.93;2.40;;;;;;;;;;5038142;28;20472;-78
2023/12/26 09:14:35;;;;;;;9.10;2.30;;;;;;;;;;5038517;28;21034;-78
2023/12/26 09:17:03;;;;;;;8.23;2.80;;;;;;;;;;5037697;28;20556;-78
2023/12/26 09:19:29;;;;;;;10.00;2.50;;;;;;;;;;5036982;28;20452;-78
2023/12/26 09:21:56;;;;;;;7.70;2.10;;;;;;;;;;5037575;28;20570;-78
2023/12/26 09:24:22;;;;;;;14.43;2.40;;;;;;;;;;5037944;28;20455;-78
2023/12/26 09:26:49;;;;;;;9.07;2.40;;;;;;;;;;5037317;28;21005;-78
2023/12/26 09:29:15;;;;;;;10.60;3.57;;;;;;;;;;5038118;28;20437;-78
2023/12/26 09:31:41;;;;;;;8.37;2.63;;;;;;;;;;5037762;28;20468;-78
2023/12/26 09:34:09;;;;;;;8.93;3.30;;;;;;;;;;5038494;28;20511;-78
2023/12/26 09:36:36;;;;;;;10.47;2.60;;;;;;;;;;5036379;28;20507;-78
2023/12/26 09:39:02;;;;;;;15.40;3.20;;;;;;;;;;5036360;28;20484;-78
2023/12/26 09:41:28;;;;;;;15.03;4.40;;;;;;;;;;5036879;28;20468;-78
2023/12/26 09:43:55;;;;;;;16.50;4.67;;;;;;;;;;5037426;28;20448;-78
2023/12/26 09:46:21;;;;;;;8.67;2.00;;;;;;;;;;5037088;28;20473;-78
2023/12/26 09:48:48;;;;;;;8.93;2.80;;;;;;;;;;5037837;28;20464;-78
2023/12/26 09:51:21;;;;;;;8.80;3.80;;;;;;;;;;5037397;28;20475;-78
2023/12/26 09:53:52;;;;;;;12.70;3.87;;;;;;;;;;5037282;28;20429;-78
2023/12/26 09:56:19;;;;;;;8.60;2.30;;;;;;;;;;5036986;28;20464;-78
2023/12/26 09:58:46;;;;;;;12.23;3.10;;;;;;;;;;5037619;28;20483;-77
2023/12/26 10:01:13;;;;;;;9.53;2.40;;;;;;;;;;5036604;28;20477;-77
2023/12/26 10:03:39;;;;;;;8.60;2.67;;;;;;;;;;5037317;28;20499;-77
2023/12/26 10:06:08;;;;;;;12.47;3.10;;;;;;;;;;5036671;28;20527;-77
2023/12/26 10:08:35;;;;;;;12.60;3.03;;;;;;;;;;5036974;28;20478;-77
2023/12/26 10:11:02;;;;;;;11.93;3.57;;;;;;;;;;5037405;28;20499;-77
2023/12/26 10:13:42;;;;;;;12.57;3.63;;;;;;;;;;5036593;28;20475;-77
2023/12/26 10:16:08;;;;;;;20.43;3.67;;;;;;;;;;5036829;28;20460;-77
2023/12/26 10:18:35;;;;;;;17.67;3.70;;;;;;;;;;5035762;28;20534;-78
2023/12/26 10:21:01;;;;;;;9.03;2.70;;;;;;;;;;5035417;28;20522;-79
2023/12/26 10:23:29;;;;;;;13.83;3.00;;;;;;;;;;5035127;28;20499;-78
2023/12/26 10:25:58;;;;;;;10.47;2.93;;;;;;;;;;5033721;28;20492;-78
2023/12/26 10:28:25;;;;;;;11.90;3.43;;;;;;;;;;5034286;28;20472;-79
2023/12/26 10:30:51;;;;;;;11.73;2.93;;;;;;;;;;5033971;28;20535;-79
2023/12/26 10:33:24;;;;;;;13.47;3.27;;;;;;;;;;5034154;28;20476;-79
2023/12/26 10:36:00;;;;;;;6.43;2.70;;;;;;;;;;5033502;28;20824;-80
2023/12/26 10:38:27;;;;;;;15.13;3.67;;;;;;;;;;5033950;28;20574;-78
2023/12/26 10:40:57;;;;;;;18.23;3.83;;;;;;;;;;5033597;28;20936;-78
2023/12/26 10:43:25;;;;;;;20.73;3.63;;;;;;;;;;5034013;28;20480;-78
2023/12/26 10:45:52;;;;;;;6.30;2.80;;;;;;;;;;5033411;28;20527;-78
2023/12/26 10:48:19;;;;;;;10.73;3.90;;;;;;;;;;5034023;28;20543;-78
2023/12/26 10:50:46;;;;;;;12.50;3.57;;;;;;;;;;5030846;28;20496;-78
2023/12/26 10:53:16;;;;;;;9.03;2.57;;;;;;;;;;5033760;28;20522;-78
2023/12/26 10:55:44;;;;;;;15.70;3.13;;;;;;;;;;5034303;28;20468;-78
2023/12/26 10:58:17;;;;;;;10.07;2.57;;;;;;;;;;5033873;28;20559;-78
2023/12/26 11:00:51;;;;;;;10.07;2.90;;;;;;;;;;5033949;28;20481;-78
2023/12/26 13:54:03;;;;;;;7.90;3.37;;;;;;;;;;5034876;28;20787;-79
2023/12/26 13:56:47;;;;;;;12.27;2.90;;;;;;;;;;5034465;28;20464;-79
2023/12/26 13:59:32;;;;;;;16.30;3.30;;;;;;;;;;5034427;28;20472;-79
2023/12/26 14:02:17;;;;;;;13.20;2.70;;;;;;;;;;5034937;28;20526;-79
2023/12/26 14:05:02;;;;;;;11.73;2.50;;;;;;;;;;5034299;28;21029;-79
2023/12/26 14:07:48;;;;;;;8.83;3.17;;;;;;;;;;5034546;28;21049;-79
2023/12/26 14:10:34;;;;;;;6.50;3.03;;;;;;;;;;5034824;28;20477;-79
2023/12/26 14:13:18;;;;;;;11.13;2.83;;;;;;;;;;5034411;28;20523;-79
2023/12/26 14:16:04;;;;;;;7.43;2.73;;;;;;;;;;5034705;28;20457;-79
2023/12/26 14:18:49;;;;;;;6.57;3.03;;;;;;;;;;5033843;28;20531;-78
2023/12/26 14:21:33;;;;;;;8.50;3.20;;;;;;;;;;5033869;28;20468;-79
2023/12/26 14:24:19;;;;;;;10.20;3.50;;;;;;;;;;5034103;28;20468;-78
2023/12/26 14:27:05;;;;;;;11.47;3.13;;;;;;;;;;5033702;28;20475;-79
2023/12/26 14:29:51;;;;;;;13.40;3.87;;;;;;;;;;5034326;28;20469;-79
2023/12/26 14:32:35;;;;;;;8.03;2.77;;;;;;;;;;5034035;28;20468;-79
2023/12/26 14:35:21;;;;;;;8.63;2.07;;;;;;;;;;5033996;28;20488;-79
2023/12/26 14:38:06;;;;;;;7.10;1.40;;;;;;;;;;5033378;28;20998;-79
2023/12/26 14:40:51;;;;;;;5.43;1.20;;;;;;;;;;5033912;28;20440;-79
2023/12/26 14:43:36;;;;;;;4.33;1.20;;;;;;;;;;5033822;28;20547;-78
2023/12/26 14:46:21;;;;;;;5.97;1.50;;;;;;;;;;5033316;28;20514;-79
2023/12/26 14:49:06;;;;;;;6.43;1.10;;;;;;;;;;5034087;28;20464;-79
2023/12/26 14:51:51;;;;;;;7.53;2.60;;;;;;;;;;5033408;28;20891;-79
2023/12/26 14:54:36;;;;;;;2.67;1.30;;;;;;;;;;5033941;28;20601;-79
2023/12/26 14:57:21;;;;;;;5.97;2.07;;;;;;;;;;5032703;28;20982;-79
2023/12/26 15:00:06;;;;;;;6.33;2.30;;;;;;;;;;5033426;28;21002;-79
2023/12/26 15:02:34;;;;;;;9.70;2.20;;;;;;;;;;5033339;28;20473;-79
2023/12/26 15:05:01;;;;;;;13.00;3.77;;;;;;;;;;5033551;28;21066;-79
2023/12/26 15:07:27;;;;;;;9.53;2.57;;;;;;;;;;5032955;28;20473;-79
2023/12/26 15:09:54;;;;;;;6.07;2.00;;;;;;;;;;5033730;28;20826;-79
2023/12/26 15:12:21;;;;;;;5.80;2.20;;;;;;;;;;5033119;28;20523;-79
2023/12/26 15:14:48;;;;;;;8.40;3.37;;;;;;;;;;5033228;28;21065;-79
2023/12/26 15:17:15;;;;;;;14.50;2.57;;;;;;;;;;5032793;28;21064;-79
2023/12/26 15:19:42;;;;;;;11.53;5.73;;;;;;;;;;5033202;28;20904;-78
2023/12/26 15:22:09;;;;;;;13.17;5.23;;;;;;;;;;5033002;28;20468;-78
2023/12/26 15:24:35;;;;;;;8.23;2.73;;;;;;;;;;5033507;28;20522;-80
2023/12/26 15:27:02;;;;;;;4.97;1.73;;;;;;;;;;5035406;28;20480;-78
2023/12/26 15:29:28;;;;;;;2.90;1.20;;;;;;;;;;5033780;28;20437;-78
2023/12/26 15:31:55;;;;;;;6.60;1.70;;;;;;;;;;5033138;28;20461;-78
2023/12/26 15:34:21;;;;;;;10.40;2.70;;;;;;;;;;5033470;28;20514;-78
2023/12/26 15:36:49;;;;;;;8.70;3.27;;;;;;;;;;5032958;28;20476;-78
2023/12/26 15:39:15;;;;;;;9.33;1.53;;;;;;;;;;5033040;28;21076;-78
2023/12/26 15:41:42;;;;;;;3.83;2.03;;;;;;;;;;5032762;28;20998;-78
2023/12/26 15:44:08;;;;;;;7.93;2.37;;;;;;;;;;5033296;28;20963;-78
2023/12/26 15:46:35;;;;;;;5.80;3.07;;;;;;;;;;5032954;28;20465;-78
2023/12/26 15:49:01;;;;;;;2.60;1.20;;;;;;;;;;5033454;28;20495;-78
2023/12/26 15:51:28;;;;;;;6.17;2.07;;;;;;;;;;5032767;28;20465;-78
2023/12/26 15:53:56;;;;;;;5.00;2.70;;;;;;;;;;5033088;28;20531;-78
2023/12/26 15:56:23;;;;;;;6.30;3.27;;;;;;;;;;5031948;28;20468;-78
2023/12/26 15:58:50;;;;;;;3.77;2.00;;;;;;;;;;5033285;28;20571;-78
2023/12/26 16:01:19;;;;;;;11.07;3.00;;;;;;;;;;5033044;28;20464;-79
2023/12/26 16:03:46;;;;;;;4.20;1.37;;;;;;;;;;5033199;28;20444;-78
2023/12/26 16:06:16;;;;;;;10.83;1.80;;;;;;;;;;5032850;28;20514;-79
2023/12/26 16:08:43;;;;;;;4.73;1.90;;;;;;;;;;5036623;28;20421;-78
2023/12/26 16:11:11;;;;;;;6.13;2.30;;;;;;;;;;5036736;28;20551;-78
2023/12/26 16:13:37;;;;;;;5.90;2.80;;;;;;;;;;5036800;28;20518;-78
2023/12/26 16:16:04;;;;;;;7.53;2.60;;;;;;;;;;5036345;28;20456;-79
2023/12/26 16:18:30;;;;;;;6.03;1.33;;;;;;;;;;5036898;28;20898;-78
2023/12/26 16:20:57;;;;;;;6.40;3.10;;;;;;;;;;5036412;28;20440;-79
2023/12/26 16:23:23;;;;;;;7.53;2.10;;;;;;;;;;5036961;28;20449;-78
2023/12/26 16:25:50;;;;;;;11.47;3.47;;;;;;;;;;5036311;28;20673;-80
2023/12/26 16:28:18;;;;;;;6.73;2.60;;;;;;;;;;5036333;28;20989;-78
2023/12/26 16:30:44;;;;;;;6.30;2.50;;;;;;;;;;5036693;28;20472;-78
2023/12/26 16:33:11;;;;;;;7.50;1.53;;;;;;;;;;5035721;28;20549;-78
2023/12/26 16:35:37;;;;;;;7.03;2.27;;;;;;;;;;5036696;28;20464;-78
2023/12/26 16:38:04;;;;;;;10.57;3.20;;;;;;;;;;5035917;28;20469;-79
2023/12/26 16:40:30;;;;;;;2.40;1.60;;;;;;;;;;5036402;28;20441;-78
2023/12/26 16:42:57;;;;;;;4.67;2.30;;;;;;;;;;5035578;28;20468;-78
2023/12/26 16:45:25;;;;;;;14.50;5.00;;;;;;;;;;5036041;28;20931;-79
2023/12/26 16:47:51;;;;;;;7.33;2.30;;;;;;;;;;5035726;28;20479;-79
2023/12/26 16:50:19;;;;;;;8.10;1.63;;;;;;;;;;5036635;28;20490;-78
2023/12/26 16:52:45;;;;;;;4.40;1.30;;;;;;;;;;5035635;28;20901;-79
2023/12/26 16:55:12;;;;;;;10.23;3.73;;;;;;;;;;5036134;28;20903;-78
2023/12/26 16:57:38;;;;;;;7.73;2.50;;;;;;;;;;5035717;28;20480;-78
2023/12/26 17:00:06;;;;;;;9.67;2.93;;;;;;;;;;5036269;28;20579;-78
2023/12/26 17:02:33;;;;;;;10.00;1.90;;;;;;;;;;5035524;28;20465;-79
2023/12/26 17:05:00;;;;;;;3.63;1.77;;;;;;;;;;5036130;28;20552;-78
2023/12/26 17:07:26;;;;;;;4.40;1.63;;;;;;;;;;5035442;28;21060;-78
2023/12/26 17:09:53;;;;;;;11.30;4.77;;;;;;;;;;5035895;28;20441;-78
2023/12/26 17:12:21;;;;;;;8.60;2.20;;;;;;;;;;5035502;28;20877;-78
2023/12/26 17:14:48;;;;;;;12.00;4.23;;;;;;;;;;5035903;28;20457;-78
2023/12/26 17:17:14;;;;;;;7.73;1.60;;;;;;;;;;5035150;28;21002;-78
2023/12/26 17:19:42;;;;;;;7.00;3.40;;;;;;;;;;5034505;28;20592;-79
2023/12/26 17:22:10;;;;;;;9.53;3.50;;;;;;;;;;5035071;28;20550;-78
2023/12/26 17:24:37;;;;;;;12.53;3.50;;;;;;;;;;5035538;28;20468;-78
2023/12/26 17:27:04;;;;;;;13.03;3.07;;;;;;;;;;5035032;28;20986;-79
2023/12/26 17:29:31;;;;;;;12.87;3.43;;;;;;;;;;5035525;28;20440;-79
2023/12/26 17:31:58;;;;;;;5.77;1.80;;;;;;;;;;5035068;28;20461;-79
2023/12/26 17:34:24;;;;;;;8.93;2.17;;;;;;;;;;5035409;28;20465;-78